createdAt,value
2023-05-11T00:02:09.523Z,18.26
2023-05-11T00:04:41.811Z,18.19
2023-05-11T00:07:11.316Z,18.29
2023-05-11T00:09:42.145Z,18.15
2023-05-11T00:12:11.537Z,17.78
2023-05-11T00:14:41.170Z,17.67
2023-05-11T00:17:11.000Z,17.46
2023-05-11T00:19:42.895Z,17.85
2023-05-11T00:22:12.461Z,18.02
2023-05-11T00:24:41.895Z,17.92
2023-05-11T00:27:11.421Z,17.83
2023-05-11T00:29:40.837Z,17.80
2023-05-11T00:32:10.154Z,18.04
2023-05-11T00:34:39.496Z,17.99
2023-05-11T00:37:11.421Z,17.63
2023-05-11T00:39:41.591Z,17.96
2023-05-11T00:42:10.935Z,17.94
2023-05-11T00:44:40.279Z,17.97
2023-05-11T00:47:10.123Z,17.90
2023-05-11T00:49:40.026Z,17.50
2023-05-11T00:52:12.364Z,17.62
2023-05-11T00:54:43.039Z,17.76
2023-05-11T00:57:12.512Z,17.93
2023-05-11T00:59:41.964Z,17.76
2023-05-11T01:02:12.058Z,17.76
2023-05-11T01:04:41.598Z,17.70
2023-05-11T01:07:18.582Z,17.65
2023-05-11T01:09:56.302Z,17.87
2023-05-11T01:12:36.424Z,17.70
2023-05-11T01:15:11.794Z,17.63
2023-05-11T01:17:52.056Z,17.66
2023-05-11T01:20:26.914Z,17.67
2023-05-11T01:23:27.819Z,17.71
2023-05-11T01:26:22.197Z,17.64
2023-05-11T01:29:06.542Z,17.40
2023-05-11T01:31:43.326Z,17.67
2023-05-11T01:34:16.120Z,17.55
2023-05-11T01:36:54.942Z,17.16
2023-05-11T01:39:29.273Z,17.52
2023-05-11T01:42:01.153Z,17.63
2023-05-11T01:44:34.627Z,17.73
2023-05-11T01:47:08.694Z,17.84
2023-05-11T01:49:41.585Z,17.74
2023-05-11T01:52:12.120Z,17.84
2023-05-11T01:54:42.928Z,17.75
2023-05-11T01:57:15.281Z,17.74
2023-05-11T01:59:47.130Z,17.74
2023-05-11T02:02:22.650Z,17.79
2023-05-11T02:04:53.968Z,17.70
2023-05-11T02:07:25.547Z,17.84
2023-05-11T02:09:59.414Z,17.61
2023-05-11T02:12:30.289Z,17.35
2023-05-11T02:15:00.611Z,17.46
2023-05-11T02:17:35.068Z,17.50
2023-05-11T02:20:06.411Z,17.44
2023-05-11T02:22:37.209Z,17.60
2023-05-11T02:25:07.889Z,17.68
2023-05-11T02:27:37.333Z,17.67
2023-05-11T02:30:08.724Z,17.71
2023-05-11T02:32:44.992Z,17.63
2023-05-11T02:35:20.359Z,17.74
2023-05-11T02:37:50.959Z,17.62
2023-05-11T02:40:23.314Z,17.62
2023-05-11T02:43:00.066Z,17.55
2023-05-11T02:45:34.040Z,17.40
2023-05-11T02:48:10.531Z,17.63
2023-05-11T02:50:43.532Z,17.61
2023-05-11T02:53:17.372Z,17.42
2023-05-11T02:55:46.895Z,17.45
2023-05-11T02:58:16.654Z,17.41
2023-05-11T03:00:46.665Z,17.28
2023-05-11T03:03:18.880Z,17.40
2023-05-11T03:05:48.398Z,17.29
2023-05-11T03:08:17.747Z,17.32
2023-05-11T03:10:47.766Z,17.23
2023-05-11T03:13:17.652Z,17.07
2023-05-11T03:15:47.459Z,17.35
2023-05-11T03:18:21.725Z,17.58
2023-05-11T03:20:52.936Z,17.52
2023-05-11T03:23:22.688Z,17.44
2023-05-11T03:25:52.185Z,17.28
2023-05-11T03:28:22.903Z,17.44
2023-05-11T03:30:54.715Z,17.48
2023-05-11T03:33:26.736Z,17.33
2023-05-11T03:35:57.831Z,17.33
2023-05-11T03:38:30.977Z,17.31
2023-05-11T03:41:01.458Z,17.04
2023-05-11T03:43:34.660Z,17.21
2023-05-11T03:46:05.630Z,16.97
2023-05-11T03:48:37.876Z,17.13
2023-05-11T03:51:08.252Z,17.38
2023-05-11T03:53:37.859Z,17.43
2023-05-11T03:56:08.027Z,17.35
2023-05-11T03:58:41.198Z,17.22
2023-05-11T04:01:11.640Z,17.21
2023-05-11T04:03:52.718Z,17.39
2023-05-11T04:06:23.368Z,17.35
2023-05-11T04:08:53.134Z,17.44
2023-05-11T04:11:23.105Z,17.44
2023-05-11T04:13:52.457Z,17.46
2023-05-11T04:16:22.197Z,17.33
2023-05-11T04:18:54.125Z,17.38
2023-05-11T04:21:23.517Z,17.03
2023-05-11T04:23:52.840Z,17.10
2023-05-11T04:26:22.574Z,17.16
2023-05-11T04:28:52.036Z,17.29
2023-05-11T04:31:21.439Z,17.21
2023-05-11T04:33:50.898Z,16.84
2023-05-11T04:36:23.137Z,16.95
2023-05-11T04:38:53.381Z,16.92
2023-05-11T04:41:22.876Z,17.07
2023-05-11T04:43:52.227Z,17.02
2023-05-11T04:46:23.113Z,17.03
2023-05-11T04:48:52.772Z,16.98
2023-05-11T04:51:24.738Z,16.97
2023-05-11T04:53:54.100Z,16.82
2023-05-11T04:56:23.437Z,17.10
2023-05-11T04:58:53.390Z,16.49
2023-05-11T05:01:22.783Z,16.65
2023-05-11T05:03:52.515Z,16.98
2023-05-11T05:06:24.461Z,16.82
2023-05-11T05:08:53.761Z,16.77
2023-05-11T05:11:23.491Z,16.74
2023-05-11T05:13:53.511Z,16.75
2023-05-11T05:16:22.901Z,17.04
2023-05-11T05:18:52.657Z,17.01
2023-05-11T05:21:24.899Z,17.05
2023-05-11T05:23:54.209Z,16.72
2023-05-11T05:26:24.698Z,17.03
2023-05-11T05:28:54.056Z,17.13
2023-05-11T05:31:23.595Z,17.15
2023-05-11T05:33:53.006Z,17.16
2023-05-11T05:36:24.883Z,16.86
2023-05-11T05:38:54.275Z,16.97
2023-05-11T05:41:24.401Z,17.12
2023-05-11T05:43:54.073Z,16.87
2023-05-11T05:46:23.552Z,16.39
2023-05-11T05:48:52.901Z,16.83
2023-05-11T05:51:25.212Z,16.98
2023-05-11T05:53:54.534Z,16.82
2023-05-11T05:56:24.235Z,16.91
2023-05-11T05:58:53.614Z,16.88
2023-05-11T06:01:22.975Z,16.68
2023-05-11T06:03:52.532Z,16.99
2023-05-11T06:06:24.694Z,16.90
2023-05-11T06:08:53.998Z,16.76
2023-05-11T06:11:23.305Z,16.96
2023-05-11T06:13:52.657Z,16.77
2023-05-11T06:16:22.093Z,16.79
2023-05-11T06:18:51.481Z,17.04
2023-05-11T06:21:20.858Z,16.94
2023-05-11T06:23:52.920Z,17.04
2023-05-11T06:26:25.274Z,16.97
2023-05-11T06:28:54.750Z,16.93
2023-05-11T06:31:24.563Z,16.97
2023-05-11T06:33:54.311Z,16.61
2023-05-11T06:36:23.846Z,16.72
2023-05-11T06:38:55.791Z,16.86
2023-05-11T06:41:25.817Z,16.76
2023-05-11T06:43:55.453Z,16.57
2023-05-11T06:46:25.125Z,16.91
2023-05-11T06:48:54.496Z,16.67
2023-05-11T06:51:24.197Z,16.81
2023-05-11T06:53:56.144Z,16.59
2023-05-11T06:56:25.452Z,16.84
2023-05-11T06:58:54.738Z,16.93
2023-05-11T07:01:24.291Z,16.78
2023-05-11T07:03:56.718Z,16.81
2023-05-11T07:06:26.110Z,16.77
2023-05-11T07:08:58.024Z,16.76
2023-05-11T07:11:28.233Z,16.72
2023-05-11T07:13:57.535Z,16.64
2023-05-11T07:16:26.965Z,16.69
2023-05-11T07:18:56.363Z,16.66
2023-05-11T07:21:25.820Z,16.61
2023-05-11T07:23:57.737Z,16.60
2023-05-11T07:26:27.193Z,16.67
2023-05-11T07:28:59.407Z,16.84
2023-05-11T07:31:30.274Z,16.82
2023-05-11T07:34:00.215Z,16.83
2023-05-11T07:36:30.089Z,16.88
2023-05-11T07:39:03.812Z,16.95
2023-05-11T07:41:33.197Z,16.84
2023-05-11T07:44:02.997Z,16.74
2023-05-11T07:46:32.481Z,16.77
2023-05-11T07:49:14.448Z,16.67
2023-05-11T07:51:46.402Z,16.53
2023-05-11T07:54:19.477Z,16.61
2023-05-11T07:56:50.562Z,16.71
2023-05-11T07:59:19.927Z,16.73
2023-05-11T08:01:49.375Z,16.82
2023-05-11T08:04:18.796Z,16.76
2023-05-11T08:06:48.398Z,16.74
2023-05-11T08:09:20.340Z,16.89
2023-05-11T08:11:49.801Z,16.98
2023-05-11T08:14:19.181Z,16.83
2023-05-11T08:16:49.817Z,16.95
2023-05-11T08:19:19.221Z,16.96
2023-05-11T08:21:49.223Z,16.84
2023-05-11T08:24:21.545Z,16.91
2023-05-11T08:26:51.341Z,16.74
2023-05-11T08:29:20.758Z,16.83
2023-05-11T08:31:50.196Z,16.56
2023-05-11T08:34:20.277Z,16.73
2023-05-11T08:36:49.901Z,16.82
2023-05-11T08:39:38.910Z,16.96
2023-05-11T08:42:14.109Z,16.96
2023-05-11T08:44:46.187Z,16.67
2023-05-11T08:49:48.504Z,16.70
2023-05-11T08:52:20.949Z,16.86
2023-05-11T08:54:53.371Z,16.79
2023-05-11T08:57:23.187Z,16.88
2023-05-11T08:59:54.787Z,16.79
2023-05-11T09:02:24.182Z,16.75
2023-05-11T09:04:54.510Z,16.74
2023-05-11T09:07:25.002Z,16.67
2023-05-11T09:09:58.224Z,16.73
2023-05-11T09:12:28.609Z,16.66
2023-05-11T09:15:01.861Z,16.63
2023-05-11T09:17:31.701Z,16.78
2023-05-11T09:20:05.408Z,16.86
2023-05-11T09:22:36.710Z,16.93
2023-05-11T09:25:09.645Z,16.88
2023-05-11T09:27:44.056Z,16.80
2023-05-11T09:32:55.525Z,16.65
2023-05-11T09:35:26.631Z,16.76
2023-05-11T09:38:05.199Z,16.65
2023-05-11T09:40:40.114Z,16.93
2023-05-11T09:43:19.740Z,16.84
2023-05-11T09:45:50.591Z,16.76
2023-05-11T09:48:31.957Z,16.75
2023-05-11T09:51:04.521Z,16.82
2023-05-11T09:53:38.797Z,16.82
2023-05-11T09:56:11.242Z,16.72
2023-05-11T09:58:52.586Z,16.63
2023-05-11T10:01:32.487Z,16.83
2023-05-11T10:04:13.911Z,16.91
2023-05-11T10:06:53.977Z,16.72
2023-05-11T10:09:27.374Z,16.78
2023-05-11T10:11:59.561Z,16.59
2023-05-11T10:14:31.350Z,16.75
2023-05-11T10:17:02.384Z,16.77
2023-05-11T10:19:32.982Z,16.77
2023-05-11T10:22:03.868Z,16.82
2023-05-11T10:24:35.201Z,16.79
2023-05-11T10:27:08.645Z,16.78
2023-05-11T10:29:40.139Z,16.96
2023-05-11T10:32:10.947Z,17.03
2023-05-11T10:34:40.975Z,17.05
2023-05-11T10:37:11.645Z,16.81
2023-05-11T10:39:42.253Z,16.89
2023-05-11T10:42:39.005Z,16.92
2023-05-11T10:45:22.284Z,16.99
2023-05-11T10:48:17.190Z,16.93
2023-05-11T10:51:08.132Z,16.97
2023-05-11T10:53:57.780Z,17.10
2023-05-11T10:56:47.426Z,17.17
2023-05-11T10:59:42.171Z,17.09
2023-05-11T11:02:11.967Z,17.16
2023-05-11T11:04:46.015Z,17.05
2023-05-11T11:07:18.445Z,17.05
2023-05-11T11:09:57.076Z,17.05
2023-05-11T11:12:27.895Z,17.04
2023-05-11T11:15:01.730Z,17.19
2023-05-11T11:17:33.020Z,17.20
2023-05-11T11:20:04.522Z,17.28
2023-05-11T11:22:47.708Z,17.32
2023-05-11T11:25:18.956Z,17.40
2023-05-11T11:28:00.069Z,17.43
2023-05-11T11:30:33.582Z,17.51
2023-05-11T11:33:33.085Z,17.47
2023-05-11T11:36:02.809Z,17.56
2023-05-11T11:38:34.291Z,17.59
2023-05-11T11:41:04.436Z,17.55
2023-05-11T11:43:54.325Z,17.70
2023-05-11T11:46:32.988Z,17.56
2023-05-11T11:49:12.405Z,17.64
2023-05-11T11:51:43.056Z,17.70
2023-05-11T11:54:12.670Z,17.73
2023-05-11T11:56:43.931Z,17.85
2023-05-11T11:59:15.610Z,17.82
2023-05-11T12:01:48.305Z,17.86
2023-05-11T12:04:34.538Z,17.94
2023-05-11T12:07:06.068Z,17.91
2023-05-11T12:09:37.048Z,17.99
2023-05-11T12:12:09.392Z,17.88
2023-05-11T12:14:39.566Z,17.97
2023-05-11T12:17:15.468Z,18.07
2023-05-11T12:19:48.708Z,18.10
2023-05-11T12:22:24.686Z,18.09
2023-05-11T12:24:54.103Z,18.21
2023-05-11T12:27:23.465Z,18.16
2023-05-11T12:29:53.296Z,18.38
2023-05-11T12:32:34.739Z,18.38
2023-05-11T12:35:07.053Z,18.46
2023-05-11T12:37:37.704Z,18.50
2023-05-11T12:40:08.310Z,18.55
2023-05-11T12:42:38.522Z,18.55
2023-05-11T12:45:09.202Z,18.40
2023-05-11T12:47:41.747Z,18.50
2023-05-11T12:50:12.611Z,18.66
2023-05-11T12:52:42.295Z,18.59
2023-05-11T12:55:12.099Z,18.53
2023-05-11T12:57:43.264Z,18.47
2023-05-11T13:00:14.990Z,18.62
2023-05-11T13:02:52.813Z,18.60
2023-05-11T13:05:27.019Z,18.64
2023-05-11T13:08:04.102Z,18.64
2023-05-11T13:10:33.770Z,18.48
2023-05-11T13:13:03.177Z,18.60
2023-05-11T13:15:32.728Z,18.62
2023-05-11T13:18:05.447Z,18.73
2023-05-11T13:20:36.438Z,18.65
2023-05-11T13:23:08.289Z,18.56
2023-05-11T13:25:54.615Z,18.54
2023-05-11T13:28:25.617Z,18.73
2023-05-11T13:31:04.905Z,18.76
2023-05-11T13:33:37.758Z,18.85
2023-05-11T13:36:07.813Z,18.73
2023-05-11T13:38:37.473Z,18.89
2023-05-11T13:41:06.927Z,18.82
2023-05-11T13:43:36.414Z,18.91
2023-05-11T13:46:06.363Z,18.88
2023-05-11T13:48:38.392Z,18.94
2023-05-11T13:51:08.240Z,18.93
2023-05-11T13:53:37.659Z,19.04
2023-05-11T13:56:07.917Z,18.99
2023-05-11T13:58:38.065Z,18.94
2023-05-11T14:01:08.706Z,18.82
2023-05-11T14:03:42.307Z,18.87
2023-05-11T14:06:11.773Z,18.88
2023-05-11T14:08:41.081Z,18.85
2023-05-11T14:11:10.441Z,18.85
2023-05-11T14:13:39.756Z,18.94
2023-05-11T14:16:10.157Z,19.00
2023-05-11T14:18:42.699Z,19.02
2023-05-11T14:21:12.265Z,18.93
2023-05-11T14:23:49.449Z,19.01
2023-05-11T14:26:27.532Z,19.03
2023-05-11T14:28:56.941Z,19.03
2023-05-11T14:31:27.042Z,18.94
2023-05-11T14:33:59.593Z,18.90
2023-05-11T14:36:29.166Z,18.93
2023-05-11T14:38:58.588Z,18.91
2023-05-11T14:41:28.372Z,18.97
2023-05-11T14:43:58.153Z,18.94
2023-05-11T14:46:27.586Z,18.90
2023-05-11T14:48:59.972Z,18.92
2023-05-11T14:51:29.270Z,18.93
2023-05-11T14:53:58.608Z,18.99
2023-05-11T14:56:28.135Z,19.01
2023-05-11T14:58:58.322Z,18.96
2023-05-11T15:01:27.700Z,19.03
2023-05-11T15:03:59.863Z,19.00
2023-05-11T15:06:30.400Z,19.03
2023-05-11T15:08:59.905Z,18.99
2023-05-11T15:11:29.215Z,19.02
2023-05-11T15:13:58.544Z,19.09
2023-05-11T15:16:28.424Z,19.12
2023-05-11T15:19:00.621Z,19.09
2023-05-11T15:21:30.516Z,18.98
2023-05-11T15:23:59.849Z,18.92
2023-05-11T15:26:29.283Z,19.02
2023-05-11T15:28:59.072Z,18.99
2023-05-11T15:31:28.718Z,19.03
2023-05-11T15:34:01.362Z,18.99
2023-05-11T15:36:35.927Z,18.98
2023-05-11T15:39:05.640Z,18.80
2023-05-11T15:41:36.824Z,18.77
2023-05-11T15:44:06.697Z,18.72
2023-05-11T15:46:37.391Z,18.83
2023-05-11T15:49:09.369Z,18.86
2023-05-11T15:51:38.734Z,18.91
2023-05-11T15:54:08.166Z,18.89
2023-05-11T15:56:37.521Z,18.90
2023-05-11T15:59:07.452Z,18.88
2023-05-11T16:01:36.796Z,18.92
2023-05-11T16:04:08.923Z,18.93
2023-05-11T16:06:38.287Z,18.83
2023-05-11T16:09:10.116Z,18.82
2023-05-11T16:11:39.682Z,18.76
2023-05-11T16:14:09.072Z,18.64
2023-05-11T16:16:39.500Z,18.69
2023-05-11T16:19:11.554Z,18.72
2023-05-11T16:21:41.271Z,18.61
2023-05-11T16:24:10.917Z,18.67
2023-05-11T16:26:40.237Z,18.59
2023-05-11T16:29:10.683Z,18.53
2023-05-11T16:31:40.099Z,18.60
2023-05-11T16:34:12.241Z,18.63
2023-05-11T16:36:41.550Z,18.70
2023-05-11T16:39:11.143Z,18.55
2023-05-11T16:41:40.439Z,18.71
2023-05-11T16:44:09.898Z,18.60
2023-05-11T16:46:39.365Z,18.54
2023-05-11T16:49:08.705Z,18.53
2023-05-11T16:51:40.707Z,18.60
2023-05-11T16:54:10.705Z,18.69
2023-05-11T16:56:40.168Z,18.69
2023-05-11T16:59:10.719Z,18.60
2023-05-11T17:01:40.232Z,18.63
2023-05-11T17:04:10.387Z,18.70
2023-05-11T17:06:42.366Z,18.64
2023-05-11T17:09:11.817Z,18.70
2023-05-11T17:11:41.160Z,18.46
2023-05-11T17:14:10.519Z,18.62
2023-05-11T17:16:39.949Z,18.82
2023-05-11T17:19:09.579Z,18.77
2023-05-11T17:21:38.990Z,18.79
2023-05-11T17:24:11.267Z,18.66
2023-05-11T17:26:47.812Z,18.67
2023-05-11T17:29:18.027Z,18.64
2023-05-11T17:31:51.702Z,18.59
2023-05-11T17:34:24.581Z,18.90
2023-05-11T17:36:56.757Z,18.80
2023-05-11T17:39:28.662Z,18.69
2023-05-11T17:41:58.272Z,18.66
2023-05-11T17:44:28.320Z,18.74
2023-05-11T17:46:57.629Z,18.66
2023-05-11T17:49:27.026Z,18.56
2023-05-11T17:51:56.365Z,18.58
2023-05-11T17:54:29.637Z,18.63
2023-05-11T17:57:01.604Z,18.47
2023-05-11T17:59:30.954Z,18.62
2023-05-11T18:02:00.645Z,18.59
2023-05-11T18:04:30.102Z,18.54
2023-05-11T18:07:00.411Z,18.43
2023-05-11T18:09:32.340Z,18.45
2023-05-11T18:12:05.833Z,18.52
2023-05-11T18:14:35.171Z,18.68
2023-05-11T18:17:05.387Z,18.67
2023-05-11T18:19:34.760Z,18.45
2023-05-11T18:22:04.479Z,18.34
2023-05-11T18:24:36.471Z,18.45
2023-05-11T18:27:05.916Z,18.71
2023-05-11T18:29:37.496Z,18.93
2023-05-11T18:32:07.206Z,18.77
2023-05-11T18:34:41.243Z,18.68
2023-05-11T18:37:10.973Z,18.66
2023-05-11T18:39:43.425Z,18.79
2023-05-11T18:42:12.924Z,18.72
2023-05-11T18:44:42.729Z,18.61
2023-05-11T18:47:12.777Z,18.64
2023-05-11T18:49:42.200Z,18.72
2023-05-11T18:52:12.748Z,18.72
2023-05-11T18:54:44.821Z,18.83
2023-05-11T18:57:18.844Z,18.98
2023-05-11T18:59:48.184Z,18.46
2023-05-11T19:02:17.624Z,18.74
2023-05-11T19:04:47.316Z,18.92
2023-05-11T19:07:19.916Z,18.97
2023-05-11T19:09:52.179Z,18.74
2023-05-11T19:12:21.581Z,18.80
2023-05-11T19:14:50.932Z,18.60
2023-05-11T19:17:20.285Z,18.78
2023-05-11T19:19:49.609Z,18.89
2023-05-11T19:22:21.456Z,18.96
2023-05-11T19:24:53.482Z,18.91
2023-05-11T19:27:22.904Z,18.71
2023-05-11T19:29:52.801Z,18.65
2023-05-11T19:32:23.558Z,18.41
2023-05-11T19:34:52.995Z,18.49
2023-05-11T19:37:22.346Z,18.88
2023-05-11T19:39:59.536Z,18.97
2023-05-11T19:42:40.752Z,19.10
2023-05-11T19:45:14.388Z,19.12
2023-05-11T19:47:43.859Z,19.06
2023-05-11T19:50:14.774Z,19.05
2023-05-11T19:52:44.259Z,18.81
2023-05-11T19:55:16.293Z,18.86
2023-05-11T19:57:45.689Z,19.06
2023-05-11T20:00:15.527Z,19.13
2023-05-11T20:02:44.966Z,19.19
2023-05-11T20:05:14.648Z,18.78
2023-05-11T20:07:44.009Z,18.98
2023-05-11T20:10:16.250Z,19.09
2023-05-11T20:12:45.628Z,19.15
2023-05-11T20:15:15.227Z,19.13
2023-05-11T20:17:44.693Z,19.17
2023-05-11T20:20:14.845Z,19.17
2023-05-11T20:22:44.528Z,19.02
2023-05-11T20:25:18.652Z,18.93
2023-05-11T20:27:48.719Z,18.99
2023-05-11T20:30:18.731Z,18.94
2023-05-11T20:35:22.332Z,18.85
2023-05-11T20:37:51.970Z,18.72
2023-05-11T20:40:25.482Z,18.71
2023-05-11T20:42:55.096Z,18.90
2023-05-11T20:45:24.727Z,18.89
2023-05-11T20:47:54.149Z,18.81
2023-05-11T20:50:24.724Z,18.87
2023-05-11T20:52:54.126Z,18.82
2023-05-11T20:55:26.307Z,18.88
2023-05-11T20:57:55.694Z,18.88
2023-05-11T21:00:25.298Z,18.64
2023-05-11T21:02:54.850Z,18.51
2023-05-11T21:05:25.544Z,18.43
2023-05-11T21:07:55.093Z,18.54
2023-05-11T21:10:27.268Z,18.50
2023-05-11T21:12:56.705Z,18.52
2023-05-11T21:15:26.071Z,18.51
2023-05-11T21:17:55.482Z,18.42
2023-05-11T21:20:24.873Z,18.41
2023-05-11T21:22:54.288Z,18.34
2023-05-11T21:25:23.743Z,18.23
2023-05-11T21:27:56.796Z,18.48
2023-05-11T21:30:26.141Z,18.39
2023-05-11T21:32:55.553Z,18.30
2023-05-11T21:35:25.145Z,18.29
2023-05-11T21:37:54.511Z,18.15
2023-05-11T21:40:23.874Z,18.27
2023-05-11T21:42:55.847Z,18.40
2023-05-11T21:45:25.375Z,18.38
2023-05-11T21:47:54.966Z,18.43
2023-05-11T21:50:24.603Z,18.36
2023-05-11T21:52:54.153Z,18.39
2023-05-11T21:55:23.900Z,18.44
2023-05-11T21:57:55.907Z,18.46
2023-05-11T22:00:26.728Z,18.42
2023-05-11T22:02:56.558Z,18.23
2023-05-11T22:05:26.649Z,18.34
2023-05-11T22:08:06.666Z,18.36
2023-05-11T22:10:43.534Z,18.35
2023-05-11T22:13:15.497Z,18.36
2023-05-11T22:15:44.827Z,18.35
2023-05-11T22:18:14.212Z,18.35
2023-05-11T22:20:43.568Z,18.34
2023-05-11T22:23:14.886Z,18.32
2023-05-11T22:25:45.053Z,18.31
2023-05-11T22:28:18.029Z,18.32
2023-05-11T22:30:47.767Z,18.24
2023-05-11T22:33:17.666Z,18.28
2023-05-11T22:35:47.560Z,18.29
2023-05-11T22:38:17.229Z,18.26
2023-05-11T22:40:46.938Z,18.30
2023-05-11T22:43:19.075Z,18.26
2023-05-11T22:45:48.979Z,18.28
2023-05-11T22:48:19.340Z,18.26
2023-05-11T22:50:49.336Z,18.28
2023-05-11T22:53:19.983Z,18.27
2023-05-11T22:55:49.919Z,18.25
2023-05-11T22:58:22.843Z,18.17
2023-05-11T23:00:56.000Z,18.12
2023-05-11T23:03:25.937Z,18.15
2023-05-11T23:05:56.084Z,18.14
2023-05-11T23:08:26.723Z,18.08
2023-05-11T23:10:56.670Z,18.02
2023-05-11T23:13:29.275Z,18.07
2023-05-11T23:15:58.746Z,17.99
2023-05-11T23:18:28.303Z,17.91
2023-05-11T23:20:58.656Z,18.00
2023-05-11T23:23:29.522Z,18.07
2023-05-11T23:25:59.186Z,18.06
2023-05-11T23:28:32.982Z,18.08
2023-05-11T23:31:04.359Z,18.00
2023-05-11T23:33:33.979Z,18.06
2023-05-11T23:36:05.097Z,18.02
2023-05-11T23:38:35.931Z,18.04
2023-05-11T23:41:06.481Z,17.98
2023-05-11T23:43:38.675Z,17.89
2023-05-11T23:46:08.645Z,17.99
2023-05-11T23:48:38.213Z,18.05
2023-05-11T23:51:07.731Z,18.07
2023-05-11T23:53:38.437Z,18.04
2023-05-11T23:56:08.998Z,18.04
2023-05-11T23:58:41.524Z,18.02
